createdAt,value
2019-05-29T00:00:37.602Z,89.00
2019-05-29T00:03:06.295Z,89.40
2019-05-29T00:05:33.938Z,89.60
2019-05-29T00:08:01.383Z,89.90
2019-05-29T00:10:28.928Z,90.10
2019-05-29T00:13:00.727Z,90.10
2019-05-29T00:15:28.314Z,90.10
2019-05-29T00:17:55.856Z,90.20
2019-05-29T00:20:23.293Z,90.20
2019-05-29T00:22:51.589Z,90.10
2019-05-29T00:25:19.051Z,90.20
2019-05-29T00:27:46.492Z,90.20
2019-05-29T00:30:15.005Z,90.40
2019-05-29T00:32:42.730Z,90.40
2019-05-29T00:35:10.343Z,90.60
2019-05-29T00:37:38.127Z,90.60
2019-05-29T00:40:06.729Z,90.80
2019-05-29T00:42:34.397Z,90.80
2019-05-29T00:45:01.940Z,90.70
2019-05-29T00:47:29.374Z,90.90
2019-05-29T00:49:56.865Z,91.00
2019-05-29T00:52:24.305Z,90.90
2019-05-29T00:54:51.793Z,91.10
2019-05-29T00:57:19.225Z,91.40
2019-05-29T00:59:46.677Z,91.90
2019-05-29T01:02:15.741Z,92.10
2019-05-29T01:04:43.401Z,92.20
2019-05-29T01:07:12.178Z,92.40
2019-05-29T01:09:40.011Z,92.30
2019-05-29T01:12:07.704Z,92.40
2019-05-29T01:14:49.154Z,92.40
2019-05-29T01:17:04.679Z,92.30
2019-05-29T01:19:32.204Z,92.20
2019-05-29T01:21:59.639Z,91.90
2019-05-29T01:24:27.221Z,91.60
2019-05-29T01:26:54.802Z,91.50
2019-05-29T01:29:23.413Z,91.40
2019-05-29T01:31:51.252Z,91.30
2019-05-29T01:34:19.709Z,91.60
2019-05-29T01:36:48.515Z,92.00
2019-05-29T01:39:17.035Z,92.00
2019-05-29T01:41:45.045Z,91.90
2019-05-29T01:44:12.726Z,91.60
2019-05-29T01:46:40.162Z,92.00
2019-05-29T01:49:07.674Z,92.20
2019-05-29T01:51:35.234Z,92.20
2019-05-29T01:54:02.748Z,92.20
2019-05-29T01:56:30.235Z,92.40
2019-05-29T01:58:57.694Z,92.40
2019-05-29T02:01:25.148Z,92.40
2019-05-29T02:03:52.719Z,92.20
2019-05-29T02:06:20.526Z,92.20
2019-05-29T02:08:47.941Z,92.20
2019-05-29T02:11:15.400Z,92.40
2019-05-29T02:13:42.960Z,92.50
2019-05-29T02:16:10.515Z,92.50
2019-05-29T02:18:37.953Z,92.20
2019-05-29T02:21:05.486Z,92.10
2019-05-29T02:23:32.969Z,91.80
2019-05-29T02:26:00.456Z,91.90
2019-05-29T02:28:28.355Z,91.70
2019-05-29T02:30:55.887Z,91.50
2019-05-29T02:33:26.149Z,91.50
2019-05-29T02:35:55.501Z,91.60
2019-05-29T02:38:24.921Z,91.60
2019-05-29T02:40:52.374Z,91.60
2019-05-29T02:43:21.339Z,91.50
2019-05-29T02:45:54.412Z,91.50
2019-05-29T02:48:18.692Z,91.40
2019-05-29T02:50:46.152Z,91.30
2019-05-29T02:53:13.609Z,91.40
2019-05-29T02:55:41.041Z,91.40
2019-05-29T02:58:08.507Z,91.50
2019-05-29T03:01:04.796Z,91.50
2019-05-29T03:03:38.764Z,91.50
2019-05-29T03:06:01.721Z,91.70
2019-05-29T03:08:32.528Z,91.70
2019-05-29T03:10:59.573Z,91.70
2019-05-29T03:13:27.671Z,91.90
2019-05-29T03:16:09.503Z,92.00
2019-05-29T03:18:25.871Z,92.00
2019-05-29T03:20:53.577Z,92.00
2019-05-29T03:23:21.187Z,91.50
2019-05-29T03:25:48.646Z,91.20
2019-05-29T03:28:17.219Z,91.10
2019-05-29T03:30:46.107Z,91.30
2019-05-29T03:33:14.035Z,91.70
2019-05-29T03:35:47.725Z,92.00
2019-05-29T03:38:11.155Z,92.30
2019-05-29T03:40:38.830Z,92.30
2019-05-29T03:43:06.486Z,92.30
2019-05-29T03:45:35.876Z,92.50
2019-05-29T03:48:04.588Z,92.10
2019-05-29T03:50:33.314Z,92.40
2019-05-29T03:53:01.704Z,92.40
2019-05-29T03:55:29.459Z,92.50
2019-05-29T03:57:57.289Z,92.20
2019-05-29T04:00:29.967Z,92.50
2019-05-29T04:02:56.964Z,92.50
2019-05-29T04:05:48.413Z,92.50
2019-05-29T04:08:18.525Z,92.40
2019-05-29T04:10:46.233Z,92.30
2019-05-29T04:13:13.864Z,92.30
2019-05-29T04:15:42.728Z,92.00
2019-05-29T04:18:10.258Z,92.00
2019-05-29T04:20:38.750Z,91.70
2019-05-29T04:23:07.255Z,91.50
2019-05-29T04:25:39.731Z,91.30
2019-05-29T04:28:07.646Z,91.20
2019-05-29T04:30:36.608Z,91.10
2019-05-29T04:33:05.461Z,90.80
2019-05-29T04:35:34.632Z,90.70
2019-05-29T04:38:02.293Z,90.70
2019-05-29T04:40:30.572Z,90.20
2019-05-29T04:42:58.247Z,90.10
2019-05-29T04:45:25.788Z,90.10
2019-05-29T04:47:53.327Z,88.60
2019-05-29T04:50:21.029Z,88.60
2019-05-29T04:52:48.588Z,88.40
2019-05-29T04:55:16.059Z,87.50
2019-05-29T04:57:43.516Z,87.10
2019-05-29T05:00:11.049Z,87.50
2019-05-29T05:02:39.427Z,87.70
2019-05-29T05:05:08.791Z,86.90
2019-05-29T05:07:37.458Z,86.00
2019-05-29T05:10:05.412Z,85.80
2019-05-29T05:12:33.634Z,87.10
2019-05-29T05:15:01.815Z,86.60
2019-05-29T05:17:29.703Z,85.80
2019-05-29T05:19:57.238Z,85.80
2019-05-29T05:22:24.825Z,86.90
2019-05-29T05:24:52.379Z,87.90
2019-05-29T05:27:19.841Z,87.30
2019-05-29T05:29:47.327Z,86.90
2019-05-29T05:32:14.906Z,87.70
2019-05-29T05:34:42.427Z,87.50
2019-05-29T05:37:10.079Z,87.70
2019-05-29T05:39:37.498Z,87.10
2019-05-29T05:42:05.057Z,86.60
2019-05-29T05:44:32.851Z,86.00
2019-05-29T05:47:00.395Z,85.50
2019-05-29T05:49:27.845Z,85.10
2019-05-29T05:51:55.331Z,84.10
2019-05-29T05:54:22.889Z,84.90
2019-05-29T05:56:53.421Z,85.50
2019-05-29T05:59:19.716Z,84.70
2019-05-29T06:01:47.271Z,84.50
2019-05-29T06:04:14.704Z,84.90
2019-05-29T06:06:42.684Z,83.80
2019-05-29T06:09:10.110Z,83.80
2019-05-29T06:11:38.334Z,82.70
2019-05-29T06:14:06.011Z,82.70
2019-05-29T06:16:34.468Z,83.20
2019-05-29T06:19:02.171Z,83.60
2019-05-29T06:21:29.733Z,83.00
2019-05-29T06:23:57.163Z,83.00
2019-05-29T06:26:24.682Z,81.90
2019-05-29T06:28:52.151Z,82.10
2019-05-29T06:31:20.734Z,81.50
2019-05-29T06:33:48.284Z,81.20
2019-05-29T06:36:15.750Z,80.80
2019-05-29T06:38:44.353Z,81.40
2019-05-29T06:41:12.162Z,81.00
2019-05-29T06:43:39.905Z,80.60
2019-05-29T06:46:07.481Z,80.40
2019-05-29T06:48:53.585Z,79.50
2019-05-29T06:51:04.617Z,78.60
2019-05-29T06:53:32.285Z,77.80
2019-05-29T06:56:01.405Z,76.30
2019-05-29T06:58:29.277Z,75.60
2019-05-29T07:00:56.822Z,74.60
2019-05-29T07:03:25.058Z,73.20
2019-05-29T07:05:53.066Z,73.30
2019-05-29T07:08:35.187Z,73.50
2019-05-29T07:10:50.053Z,71.70
2019-05-29T07:13:17.480Z,70.70
2019-05-29T07:15:45.833Z,70.50
2019-05-29T07:18:14.382Z,71.30
2019-05-29T07:20:42.698Z,71.50
2019-05-29T07:23:10.429Z,70.90
2019-05-29T07:25:38.778Z,71.30
2019-05-29T07:28:06.350Z,70.50
2019-05-29T07:30:34.020Z,70.50
2019-05-29T07:33:01.586Z,69.10
2019-05-29T07:35:29.168Z,68.50
2019-05-29T07:37:56.769Z,67.90
2019-05-29T07:43:30.485Z,67.00
2019-05-29T07:45:57.998Z,67.70
2019-05-29T07:48:25.591Z,67.70
2019-05-29T07:52:14.685Z,68.70
2019-05-29T07:53:22.687Z,68.50
2019-05-29T07:55:50.215Z,66.10
2019-05-29T07:58:17.713Z,66.80
2019-05-29T08:01:06.898Z,66.80
2019-05-29T08:03:14.884Z,65.70
2019-05-29T08:05:46.217Z,66.80
2019-05-29T08:08:12.011Z,67.40
2019-05-29T08:10:39.982Z,68.10
2019-05-29T08:13:08.033Z,65.30
2019-05-29T08:15:49.155Z,64.80
2019-05-29T08:18:05.156Z,63.50
2019-05-29T08:20:32.824Z,60.10
2019-05-29T08:23:00.349Z,60.50
2019-05-29T08:25:27.855Z,59.60
2019-05-29T08:27:55.501Z,57.40
2019-05-29T08:30:22.964Z,58.10
2019-05-29T08:32:51.258Z,58.60
2019-05-29T08:35:19.048Z,58.10
2019-05-29T08:37:47.009Z,57.80
2019-05-29T08:40:16.632Z,57.70
2019-05-29T08:42:45.158Z,58.40
2019-05-29T08:45:13.066Z,56.00
2019-05-29T08:47:41.488Z,55.70
2019-05-29T08:50:19.332Z,56.70
2019-05-29T08:52:41.694Z,57.80
2019-05-29T08:55:09.760Z,58.10
2019-05-29T08:57:37.494Z,58.70
2019-05-29T09:00:06.420Z,58.70
2019-05-29T09:02:34.132Z,59.20
2019-05-29T09:05:01.995Z,58.70
2019-05-29T09:07:30.149Z,59.00
2019-05-29T09:09:57.699Z,59.80
2019-05-29T09:12:25.465Z,62.20
2019-05-29T09:14:52.977Z,64.60
2019-05-29T09:17:25.091Z,67.60
2019-05-29T09:19:52.751Z,66.60
2019-05-29T09:22:20.988Z,70.20
2019-05-29T09:24:48.767Z,71.80
2019-05-29T09:27:17.063Z,70.50
2019-05-29T09:29:44.996Z,70.00
2019-05-29T09:32:13.673Z,73.90
2019-05-29T09:34:42.136Z,74.60
2019-05-29T09:37:09.633Z,75.20
2019-05-29T09:39:37.146Z,72.20
2019-05-29T09:42:04.655Z,71.70
2019-05-29T09:44:38.962Z,72.00
2019-05-29T09:47:01.582Z,70.40
2019-05-29T09:49:30.607Z,67.90
2019-05-29T09:51:58.121Z,67.40
2019-05-29T09:54:25.895Z,66.30
2019-05-29T09:56:54.753Z,61.00
2019-05-29T09:59:23.113Z,60.30
2019-05-29T10:01:50.647Z,59.90
2019-05-29T10:04:18.250Z,57.80
2019-05-29T10:06:45.838Z,59.90
2019-05-29T10:09:13.433Z,59.90
2019-05-29T10:11:40.882Z,60.30
2019-05-29T10:14:08.374Z,59.50
2019-05-29T10:16:35.845Z,60.70
2019-05-29T10:19:04.851Z,59.90
2019-05-29T10:21:39.892Z,60.10
2019-05-29T10:24:03.981Z,62.50
2019-05-29T10:26:31.741Z,62.50
2019-05-29T10:29:08.028Z,63.80
2019-05-29T10:31:28.788Z,63.10
2019-05-29T10:33:56.283Z,60.90
2019-05-29T10:36:24.104Z,61.40
2019-05-29T10:38:52.695Z,61.60
2019-05-29T10:41:20.335Z,62.30
2019-05-29T10:43:49.079Z,58.90
2019-05-29T10:46:17.235Z,57.70
2019-05-29T10:48:48.688Z,57.40
2019-05-29T10:51:14.506Z,56.10
2019-05-29T10:53:42.206Z,57.40
2019-05-29T10:56:10.341Z,55.20
2019-05-29T10:58:48.439Z,53.90
2019-05-29T11:01:07.831Z,53.10
2019-05-29T11:03:36.732Z,51.00
2019-05-29T11:06:05.106Z,52.20
2019-05-29T11:08:34.403Z,51.90
2019-05-29T11:11:01.898Z,46.10
2019-05-29T11:13:29.387Z,44.00
2019-05-29T11:15:57.107Z,45.90
2019-05-29T11:18:24.788Z,45.20
2019-05-29T11:20:53.419Z,44.70
2019-05-29T11:23:21.626Z,44.40
2019-05-29T11:25:49.931Z,42.10
2019-05-29T11:28:17.498Z,41.40
2019-05-29T11:30:45.237Z,39.80
2019-05-29T11:33:14.053Z,41.10
2019-05-29T11:35:57.177Z,42.90
2019-05-29T11:38:11.292Z,40.10
2019-05-29T11:40:39.630Z,39.10
2019-05-29T11:43:07.298Z,36.50
2019-05-29T11:45:35.812Z,38.20
2019-05-29T11:48:05.317Z,39.50
2019-05-29T11:50:33.460Z,41.20
2019-05-29T11:53:02.826Z,42.30
2019-05-29T11:55:31.020Z,45.20
2019-05-29T11:57:59.994Z,44.60
2019-05-29T12:00:29.916Z,44.90
2019-05-29T12:02:57.860Z,47.30
2019-05-29T12:05:25.661Z,50.80
2019-05-29T12:07:53.636Z,50.70
2019-05-29T12:10:22.099Z,51.30
2019-05-29T12:12:49.680Z,50.70
2019-05-29T12:15:18.810Z,49.40
2019-05-29T12:17:46.540Z,48.50
2019-05-29T12:20:31.924Z,47.50
2019-05-29T12:23:11.319Z,49.40
2019-05-29T12:25:15.583Z,47.50
2019-05-29T12:27:43.421Z,47.60
2019-05-29T12:30:11.901Z,46.50
2019-05-29T12:32:39.366Z,42.30
2019-05-29T12:35:07.920Z,42.90
2019-05-29T12:37:35.539Z,43.80
2019-05-29T12:40:03.985Z,45.50
2019-05-29T12:42:31.449Z,46.40
2019-05-29T12:44:59.571Z,44.00
2019-05-29T12:47:27.278Z,46.10
2019-05-29T12:49:55.509Z,46.70
2019-05-29T12:52:23.257Z,49.30
2019-05-29T12:54:50.865Z,52.20
2019-05-29T12:57:18.323Z,54.80
2019-05-29T12:59:45.829Z,56.90
2019-05-29T13:02:13.322Z,58.70
2019-05-29T13:05:06.003Z,60.70
2019-05-29T13:07:11.419Z,63.80
2019-05-29T13:09:38.903Z,63.30
2019-05-29T13:12:06.485Z,62.00
2019-05-29T13:14:34.002Z,61.80
2019-05-29T13:17:02.963Z,62.20
2019-05-29T13:19:30.856Z,63.70
2019-05-29T13:21:59.252Z,65.10
2019-05-29T13:24:26.852Z,64.80
2019-05-29T13:26:55.494Z,63.80
2019-05-29T13:29:23.155Z,63.70
2019-05-29T13:31:50.662Z,63.50
2019-05-29T13:34:18.265Z,61.40
2019-05-29T13:36:45.728Z,60.10
2019-05-29T13:39:13.365Z,58.40
2019-05-29T13:41:40.921Z,55.10
2019-05-29T13:44:08.381Z,52.20
2019-05-29T13:46:36.086Z,49.40
2019-05-29T13:49:05.043Z,50.30
2019-05-29T13:51:32.724Z,48.80
2019-05-29T13:54:09.989Z,47.50
2019-05-29T13:56:32.216Z,48.40
2019-05-29T13:58:59.919Z,48.50
2019-05-29T14:01:27.544Z,47.30
2019-05-29T14:03:55.151Z,45.20
2019-05-29T14:06:23.730Z,42.70
2019-05-29T14:09:15.588Z,44.70
2019-05-29T14:11:44.842Z,45.20
2019-05-29T14:14:13.728Z,45.00
2019-05-29T14:16:41.613Z,43.60
2019-05-29T14:19:09.271Z,46.70
2019-05-29T14:21:36.860Z,45.30
2019-05-29T14:24:23.527Z,48.80
2019-05-29T14:26:34.131Z,49.70
2019-05-29T14:29:01.737Z,49.70
2019-05-29T14:31:29.332Z,50.70
2019-05-29T14:33:57.020Z,52.50
2019-05-29T14:36:24.986Z,52.20
2019-05-29T14:38:52.576Z,53.40
2019-05-29T14:41:21.105Z,55.80
2019-05-29T14:43:48.889Z,58.10
2019-05-29T14:46:16.536Z,60.90
2019-05-29T14:48:44.196Z,63.30
2019-05-29T14:51:12.651Z,62.20
2019-05-29T14:53:40.340Z,63.70
2019-05-29T14:56:08.877Z,66.40
2019-05-29T14:58:36.470Z,70.00
2019-05-29T15:01:04.983Z,70.20
2019-05-29T15:03:32.762Z,70.90
2019-05-29T15:06:00.337Z,73.00
2019-05-29T15:08:28.081Z,70.00
2019-05-29T15:10:55.824Z,70.40
2019-05-29T15:13:23.791Z,70.20
2019-05-29T15:15:51.457Z,71.10
2019-05-29T15:18:19.335Z,70.40
2019-05-29T15:20:46.989Z,70.50
2019-05-29T15:23:15.650Z,71.50
2019-05-29T15:25:43.475Z,73.70
2019-05-29T15:28:12.572Z,73.30
2019-05-29T15:30:40.865Z,74.30
2019-05-29T15:33:08.651Z,76.10
2019-05-29T15:35:36.407Z,77.40
2019-05-29T15:38:04.028Z,77.80
2019-05-29T15:40:34.139Z,78.00
2019-05-29T15:43:01.854Z,80.20
2019-05-29T15:45:29.655Z,80.20
2019-05-29T15:47:57.222Z,80.80
2019-05-29T15:50:24.965Z,83.20
2019-05-29T15:52:52.645Z,85.30
2019-05-29T15:55:29.687Z,87.50
2019-05-29T15:57:49.689Z,88.40
2019-05-29T16:00:17.840Z,89.20
2019-05-29T16:02:48.707Z,90.10
2019-05-29T16:05:17.106Z,91.30
2019-05-29T16:07:45.039Z,91.90
2019-05-29T16:10:16.724Z,92.10
2019-05-29T16:12:43.124Z,92.30
2019-05-29T16:15:15.414Z,90.60
2019-05-29T16:17:44.306Z,89.60
2019-05-29T16:20:16.084Z,89.90
2019-05-29T16:22:44.343Z,89.60
2019-05-29T16:25:14.834Z,89.90
2019-05-29T16:27:42.564Z,89.60
2019-05-29T16:30:11.500Z,88.60
2019-05-29T16:32:39.384Z,89.90
2019-05-29T16:35:08.438Z,87.50
2019-05-29T16:37:36.259Z,88.80
2019-05-29T16:40:04.844Z,87.70
2019-05-29T16:42:32.561Z,87.70
2019-05-29T16:45:00.270Z,88.20
2019-05-29T16:47:28.007Z,88.40
2019-05-29T16:49:55.766Z,89.40
2019-05-29T16:52:23.474Z,87.30
2019-05-29T16:54:51.400Z,86.40
2019-05-29T16:57:19.337Z,85.80
2019-05-29T16:59:48.297Z,85.80
2019-05-29T17:02:16.012Z,85.30
2019-05-29T17:04:44.052Z,83.80
2019-05-29T17:07:11.804Z,84.00
2019-05-29T17:09:39.429Z,84.10
2019-05-29T17:12:09.469Z,83.00
2019-05-29T17:14:37.206Z,83.60
2019-05-29T17:17:05.028Z,79.50
2019-05-29T17:19:32.655Z,83.00
2019-05-29T17:22:00.519Z,82.80
2019-05-29T17:24:28.065Z,81.50
2019-05-29T17:26:55.956Z,80.00
2019-05-29T17:29:24.936Z,79.30
2019-05-29T17:31:52.720Z,77.30
2019-05-29T17:34:21.065Z,77.80
2019-05-29T17:36:48.912Z,76.30
2019-05-29T17:39:17.038Z,75.60
2019-05-29T17:41:44.876Z,74.50
2019-05-29T17:44:12.643Z,75.20
2019-05-29T17:46:40.331Z,75.90
2019-05-29T17:49:08.002Z,74.30
2019-05-29T17:51:36.758Z,76.30
2019-05-29T17:54:04.851Z,77.80
2019-05-29T17:56:36.764Z,79.90
2019-05-29T17:59:02.036Z,82.10
2019-05-29T18:01:30.820Z,83.80
2019-05-29T18:03:58.883Z,84.70
2019-05-29T18:06:26.822Z,85.10
2019-05-29T18:08:54.520Z,85.60
2019-05-29T18:11:23.249Z,86.90
2019-05-29T18:13:52.998Z,87.70
2019-05-29T18:16:21.567Z,87.70
2019-05-29T18:18:49.428Z,89.00
2019-05-29T18:21:17.477Z,89.40
2019-05-29T18:23:45.211Z,90.10
2019-05-29T18:26:12.935Z,90.40
2019-05-29T18:28:40.721Z,90.90
2019-05-29T18:31:08.594Z,91.20
2019-05-29T18:33:36.453Z,91.40
2019-05-29T18:36:04.205Z,91.50
2019-05-29T18:38:32.757Z,91.50
2019-05-29T18:41:00.684Z,91.60
2019-05-29T18:43:29.474Z,91.70
2019-05-29T18:45:57.126Z,91.80
2019-05-29T18:48:25.317Z,92.00
2019-05-29T18:50:54.186Z,92.10
2019-05-29T18:53:22.729Z,92.10
2019-05-29T18:55:50.579Z,92.20
2019-05-29T18:58:18.416Z,92.50
2019-05-29T19:00:46.333Z,92.40
2019-05-29T19:03:14.180Z,92.80
2019-05-29T19:05:42.646Z,93.30
2019-05-29T19:08:10.629Z,93.60
2019-05-29T19:10:38.461Z,93.80
2019-05-29T19:13:06.202Z,93.90
2019-05-29T19:15:33.929Z,93.80
2019-05-29T19:18:01.651Z,93.70
2019-05-29T19:20:30.487Z,93.80
2019-05-29T19:22:58.372Z,94.00
2019-05-29T19:25:26.821Z,94.20
2019-05-29T19:27:54.804Z,93.90
2019-05-29T19:30:22.966Z,93.70
2019-05-29T19:32:50.826Z,94.00
2019-05-29T19:35:18.912Z,94.00
2019-05-29T19:37:46.826Z,94.20
2019-05-29T19:40:15.091Z,94.30
2019-05-29T19:42:42.826Z,94.20
2019-05-29T19:45:11.188Z,94.40
2019-05-29T19:47:39.129Z,94.30
2019-05-29T19:50:10.864Z,94.30
2019-05-29T19:52:37.044Z,94.30
2019-05-29T19:55:05.013Z,94.30
2019-05-29T19:57:50.820Z,94.30
2019-05-29T20:00:02.933Z,93.80
2019-05-29T20:02:30.807Z,93.80
2019-05-29T20:04:58.598Z,93.70
2019-05-29T20:07:27.020Z,93.90
2019-05-29T20:09:55.012Z,94.20
2019-05-29T20:12:22.848Z,94.80
2019-05-29T20:14:50.584Z,95.30
2019-05-29T20:17:20.308Z,95.30
2019-05-29T20:19:48.099Z,95.40
2019-05-29T20:22:16.076Z,95.60
2019-05-29T20:24:43.823Z,95.90
2019-05-29T20:27:11.513Z,96.10
2019-05-29T20:29:39.263Z,95.80
2019-05-29T20:32:07.063Z,95.70
2019-05-29T20:34:35.157Z,95.30
2019-05-29T20:37:03.012Z,95.10
2019-05-29T20:39:32.820Z,95.00
2019-05-29T20:42:00.541Z,94.90
2019-05-29T20:44:28.251Z,95.10
2019-05-29T20:46:56.169Z,95.30
2019-05-29T20:49:24.194Z,95.50
2019-05-29T20:51:51.889Z,95.70
2019-05-29T20:54:19.874Z,95.70
2019-05-29T20:56:47.634Z,95.90
2019-05-29T20:59:15.286Z,95.90
2019-05-29T21:01:47.015Z,95.90
2019-05-29T21:04:15.549Z,95.90
2019-05-29T21:06:43.220Z,95.90
2019-05-29T21:09:10.930Z,96.00
2019-05-29T21:11:39.514Z,95.90
2019-05-29T21:14:07.393Z,95.70
2019-05-29T21:16:35.576Z,95.30
2019-05-29T21:19:03.549Z,95.40
2019-05-29T21:21:31.347Z,95.50
2019-05-29T21:23:59.036Z,95.60
2019-05-29T21:26:27.088Z,95.70
2019-05-29T21:28:55.342Z,95.90
2019-05-29T21:31:23.152Z,96.10
2019-05-29T21:33:50.974Z,96.40
2019-05-29T21:36:18.753Z,97.00
2019-05-29T21:38:46.550Z,97.20
2019-05-29T21:41:14.270Z,97.10
2019-05-29T21:43:42.724Z,97.00
2019-05-29T21:46:10.489Z,97.40
2019-05-29T21:48:38.997Z,97.40
2019-05-29T21:51:06.853Z,97.40
2019-05-29T21:53:34.570Z,97.40
2019-05-29T21:56:02.511Z,97.40
2019-05-29T21:58:30.245Z,97.40
2019-05-29T22:00:58.226Z,97.40
2019-05-29T22:03:27.277Z,97.40
2019-05-29T22:05:55.281Z,97.40
2019-05-29T22:08:23.206Z,97.40
2019-05-29T22:10:51.528Z,97.40
2019-05-29T22:13:19.299Z,97.40
2019-05-29T22:15:50.546Z,97.40
2019-05-29T22:18:18.658Z,97.40
2019-05-29T22:20:46.756Z,97.40
2019-05-29T22:23:14.737Z,97.40
2019-05-29T22:25:43.743Z,97.40
2019-05-29T22:28:11.625Z,97.40
2019-05-29T22:30:39.686Z,97.30
2019-05-29T22:33:07.828Z,97.40
2019-05-29T22:35:35.820Z,97.40
2019-05-29T22:38:05.133Z,97.40
2019-05-29T22:40:32.995Z,97.40
2019-05-29T22:43:01.827Z,97.40
2019-05-29T22:45:29.823Z,97.40
2019-05-29T22:47:57.776Z,97.40
2019-05-29T22:50:25.608Z,97.40
2019-05-29T22:52:53.778Z,97.40
2019-05-29T22:55:22.004Z,97.40
2019-05-29T22:57:49.841Z,97.40
2019-05-29T23:00:19.036Z,97.30
2019-05-29T23:02:46.900Z,97.20
2019-05-29T23:05:14.673Z,97.10
2019-05-29T23:07:42.723Z,97.30
2019-05-29T23:10:12.313Z,97.40
2019-05-29T23:12:40.269Z,97.40
2019-05-29T23:15:08.309Z,97.10
2019-05-29T23:17:36.042Z,96.70
2019-05-29T23:20:04.704Z,96.50
2019-05-29T23:22:32.843Z,96.40
2019-05-29T23:25:03.146Z,96.50
2019-05-29T23:27:31.161Z,96.50
2019-05-29T23:29:59.096Z,96.50
2019-05-29T23:32:26.833Z,96.60
2019-05-29T23:34:55.065Z,96.60
2019-05-29T23:37:23.071Z,96.90
2019-05-29T23:39:50.845Z,97.30
2019-05-29T23:42:18.577Z,97.30
2019-05-29T23:44:46.380Z,97.30
2019-05-29T23:47:14.132Z,97.10
2019-05-29T23:49:41.925Z,97.10
2019-05-29T23:52:09.736Z,97.40
2019-05-29T23:54:37.545Z,97.40
2019-05-29T23:57:05.330Z,97.40
2019-05-29T23:59:33.184Z,97.10
